sensor_id;sensor_type;location;lat;lon;timestamp;pressure;altitude;pressure_sealevel;temperature
19282;BMP180;9774;52.034;5.342;2022-08-19T00:01:27;101211.00;;;24.60
19282;BMP180;9774;52.034;5.342;2022-08-19T00:03:56;101203.00;;;24.60
19282;BMP180;9774;52.034;5.342;2022-08-19T00:06:23;101211.00;;;24.60
19282;BMP180;9774;52.034;5.342;2022-08-19T00:08:50;101215.00;;;24.60
19282;BMP180;9774;52.034;5.342;2022-08-19T00:11:18;101214.00;;;24.50
19282;BMP180;9774;52.034;5.342;2022-08-19T00:13:46;101212.00;;;24.50
19282;BMP180;9774;52.034;5.342;2022-08-19T00:16:17;101215.00;;;24.50
19282;BMP180;9774;52.034;5.342;2022-08-19T00:18:45;101215.00;;;24.50
19282;BMP180;9774;52.034;5.342;2022-08-19T00:21:13;101212.00;;;24.40
19282;BMP180;9774;52.034;5.342;2022-08-19T00:23:40;101216.00;;;24.40
19282;BMP180;9774;52.034;5.342;2022-08-19T00:26:09;101213.00;;;24.40
19282;BMP180;9774;52.034;5.342;2022-08-19T00:28:37;101216.00;;;24.40
19282;BMP180;9774;52.034;5.342;2022-08-19T00:31:06;101207.00;;;24.40
19282;BMP180;9774;52.034;5.342;2022-08-19T00:33:35;101216.00;;;24.30
19282;BMP180;9774;52.034;5.342;2022-08-19T00:36:05;101211.00;;;24.30
19282;BMP180;9774;52.034;5.342;2022-08-19T00:38:35;101209.00;;;24.30
19282;BMP180;9774;52.034;5.342;2022-08-19T00:41:02;101209.00;;;24.30
19282;BMP180;9774;52.034;5.342;2022-08-19T00:43:31;101211.00;;;24.20
19282;BMP180;9774;52.034;5.342;2022-08-19T00:45:58;101212.00;;;24.30
19282;BMP180;9774;52.034;5.342;2022-08-19T00:48:27;101208.00;;;24.20
19282;BMP180;9774;52.034;5.342;2022-08-19T00:50:56;101209.00;;;24.20
19282;BMP180;9774;52.034;5.342;2022-08-19T00:53:27;101209.00;;;24.20
19282;BMP180;9774;52.034;5.342;2022-08-19T00:55:56;101210.00;;;24.20
19282;BMP180;9774;52.034;5.342;2022-08-19T00:58:27;101207.00;;;24.10
19282;BMP180;9774;52.034;5.342;2022-08-19T01:00:55;101215.00;;;24.10
19282;BMP180;9774;52.034;5.342;2022-08-19T01:03:23;101215.00;;;24.10
19282;BMP180;9774;52.034;5.342;2022-08-19T01:05:51;101213.00;;;24.10
19282;BMP180;9774;52.034;5.342;2022-08-19T01:08:21;101218.00;;;24.10
19282;BMP180;9774;52.034;5.342;2022-08-19T01:10:50;101214.00;;;24.00
19282;BMP180;9774;52.034;5.342;2022-08-19T01:13:21;101207.00;;;24.00
19282;BMP180;9774;52.034;5.342;2022-08-19T01:15:52;101215.00;;;24.00
19282;BMP180;9774;52.034;5.342;2022-08-19T01:18:21;101204.00;;;24.00
19282;BMP180;9774;52.034;5.342;2022-08-19T01:20:48;101206.00;;;24.00
19282;BMP180;9774;52.034;5.342;2022-08-19T01:23:17;101199.00;;;23.90
19282;BMP180;9774;52.034;5.342;2022-08-19T01:25:47;101214.00;;;23.90
19282;BMP180;9774;52.034;5.342;2022-08-19T01:28:17;101209.00;;;23.90
19282;BMP180;9774;52.034;5.342;2022-08-19T01:30:46;101212.00;;;23.90
19282;BMP180;9774;52.034;5.342;2022-08-19T01:33:13;101216.00;;;23.90
19282;BMP180;9774;52.034;5.342;2022-08-19T01:35:41;101218.00;;;23.90
19282;BMP180;9774;52.034;5.342;2022-08-19T01:38:19;101224.00;;;23.80
19282;BMP180;9774;52.034;5.342;2022-08-19T01:40:51;101225.00;;;23.80
19282;BMP180;9774;52.034;5.342;2022-08-19T01:43:18;101217.00;;;23.80
19282;BMP180;9774;52.034;5.342;2022-08-19T01:45:47;101216.00;;;23.80
19282;BMP180;9774;52.034;5.342;2022-08-19T01:48:14;101210.00;;;23.80
19282;BMP180;9774;52.034;5.342;2022-08-19T01:50:41;101208.00;;;23.80
19282;BMP180;9774;52.034;5.342;2022-08-19T01:53:11;101210.00;;;23.70
19282;BMP180;9774;52.034;5.342;2022-08-19T01:55:40;101218.00;;;23.70
19282;BMP180;9774;52.034;5.342;2022-08-19T01:58:13;101209.00;;;23.70
19282;BMP180;9774;52.034;5.342;2022-08-19T02:00:41;101212.00;;;23.70
19282;BMP180;9774;52.034;5.342;2022-08-19T02:03:09;101207.00;;;23.70
19282;BMP180;9774;52.034;5.342;2022-08-19T02:05:37;101216.00;;;23.70
19282;BMP180;9774;52.034;5.342;2022-08-19T02:08:05;101208.00;;;23.60
19282;BMP180;9774;52.034;5.342;2022-08-19T02:10:33;101211.00;;;23.60
19282;BMP180;9774;52.034;5.342;2022-08-19T02:13:00;101211.00;;;23.60
19282;BMP180;9774;52.034;5.342;2022-08-19T02:15:29;101218.00;;;23.60
19282;BMP180;9774;52.034;5.342;2022-08-19T02:17:58;101213.00;;;23.60
19282;BMP180;9774;52.034;5.342;2022-08-19T02:20:25;101215.00;;;23.60
19282;BMP180;9774;52.034;5.342;2022-08-19T02:22:52;101217.00;;;23.50
19282;BMP180;9774;52.034;5.342;2022-08-19T02:25:20;101213.00;;;23.50
19282;BMP180;9774;52.034;5.342;2022-08-19T02:27:47;101225.00;;;23.50
19282;BMP180;9774;52.034;5.342;2022-08-19T02:30:16;101218.00;;;23.50
19282;BMP180;9774;52.034;5.342;2022-08-19T02:32:45;101215.00;;;23.50
19282;BMP180;9774;52.034;5.342;2022-08-19T02:35:13;101223.00;;;23.50
19282;BMP180;9774;52.034;5.342;2022-08-19T02:37:41;101219.00;;;23.50
19282;BMP180;9774;52.034;5.342;2022-08-19T02:40:26;101231.00;;;23.40
19282;BMP180;9774;52.034;5.342;2022-08-19T02:42:54;101227.00;;;23.40
19282;BMP180;9774;52.034;5.342;2022-08-19T02:45:21;101228.00;;;23.40
19282;BMP180;9774;52.034;5.342;2022-08-19T02:47:50;101226.00;;;23.40
19282;BMP180;9774;52.034;5.342;2022-08-19T02:50:17;101220.00;;;23.40
19282;BMP180;9774;52.034;5.342;2022-08-19T02:52:45;101223.00;;;23.40
19282;BMP180;9774;52.034;5.342;2022-08-19T02:55:12;101228.00;;;23.40
19282;BMP180;9774;52.034;5.342;2022-08-19T02:57:39;101230.00;;;23.30
19282;BMP180;9774;52.034;5.342;2022-08-19T03:00:08;101227.00;;;23.30
19282;BMP180;9774;52.034;5.342;2022-08-19T03:02:38;101232.00;;;23.30
19282;BMP180;9774;52.034;5.342;2022-08-19T03:05:08;101224.00;;;23.30
19282;BMP180;9774;52.034;5.342;2022-08-19T03:07:37;101224.00;;;23.30
19282;BMP180;9774;52.034;5.342;2022-08-19T03:10:05;101217.00;;;23.30
19282;BMP180;9774;52.034;5.342;2022-08-19T03:12:36;101213.00;;;23.20
19282;BMP180;9774;52.034;5.342;2022-08-19T03:15:05;101213.00;;;23.30
19282;BMP180;9774;52.034;5.342;2022-08-19T03:17:33;101219.00;;;23.20
19282;BMP180;9774;52.034;5.342;2022-08-19T03:20:00;101209.00;;;23.20
19282;BMP180;9774;52.034;5.342;2022-08-19T03:22:29;101214.00;;;23.20
19282;BMP180;9774;52.034;5.342;2022-08-19T03:24:57;101208.00;;;23.20
19282;BMP180;9774;52.034;5.342;2022-08-19T03:27:25;101202.00;;;23.20
19282;BMP180;9774;52.034;5.342;2022-08-19T03:29:53;101206.00;;;23.20
19282;BMP180;9774;52.034;5.342;2022-08-19T03:32:20;101206.00;;;23.20
19282;BMP180;9774;52.034;5.342;2022-08-19T03:34:48;101207.00;;;23.20
19282;BMP180;9774;52.034;5.342;2022-08-19T03:37:17;101206.00;;;23.20
19282;BMP180;9774;52.034;5.342;2022-08-19T03:39:45;101217.00;;;23.10
19282;BMP180;9774;52.034;5.342;2022-08-19T03:42:13;101214.00;;;23.10
19282;BMP180;9774;52.034;5.342;2022-08-19T03:44:41;101213.00;;;23.10
19282;BMP180;9774;52.034;5.342;2022-08-19T03:47:10;101219.00;;;23.10
19282;BMP180;9774;52.034;5.342;2022-08-19T03:49:41;101212.00;;;23.10
19282;BMP180;9774;52.034;5.342;2022-08-19T03:52:09;101204.00;;;23.10
19282;BMP180;9774;52.034;5.342;2022-08-19T03:54:36;101203.00;;;23.10
19282;BMP180;9774;52.034;5.342;2022-08-19T03:57:07;101212.00;;;23.00
19282;BMP180;9774;52.034;5.342;2022-08-19T03:59:38;101207.00;;;23.10
19282;BMP180;9774;52.034;5.342;2022-08-19T04:02:08;101215.00;;;23.00
19282;BMP180;9774;52.034;5.342;2022-08-19T04:04:36;101210.00;;;23.00
19282;BMP180;9774;52.034;5.342;2022-08-19T04:07:04;101206.00;;;23.00
19282;BMP180;9774;52.034;5.342;2022-08-19T04:09:34;101207.00;;;23.00
19282;BMP180;9774;52.034;5.342;2022-08-19T04:12:03;101202.00;;;23.00
19282;BMP180;9774;52.034;5.342;2022-08-19T04:14:33;101191.00;;;23.00
19282;BMP180;9774;52.034;5.342;2022-08-19T04:17:02;101191.00;;;23.00
19282;BMP180;9774;52.034;5.342;2022-08-19T04:19:31;101195.00;;;23.00
19282;BMP180;9774;52.034;5.342;2022-08-19T04:21:58;101201.00;;;22.90
19282;BMP180;9774;52.034;5.342;2022-08-19T04:24:26;101200.00;;;22.90
19282;BMP180;9774;52.034;5.342;2022-08-19T04:26:53;101204.00;;;22.90
19282;BMP180;9774;52.034;5.342;2022-08-19T04:29:23;101206.00;;;22.90
19282;BMP180;9774;52.034;5.342;2022-08-19T04:31:55;101207.00;;;22.90
19282;BMP180;9774;52.034;5.342;2022-08-19T04:34:25;101205.00;;;22.90
19282;BMP180;9774;52.034;5.342;2022-08-19T04:36:55;101203.00;;;22.90
19282;BMP180;9774;52.034;5.342;2022-08-19T04:39:26;101196.00;;;22.90
19282;BMP180;9774;52.034;5.342;2022-08-19T04:42:16;101197.00;;;22.90
19282;BMP180;9774;52.034;5.342;2022-08-19T04:45:02;101189.00;;;22.80
19282;BMP180;9774;52.034;5.342;2022-08-19T04:47:31;101189.00;;;22.80
19282;BMP180;9774;52.034;5.342;2022-08-19T04:49:59;101183.00;;;22.80
19282;BMP180;9774;52.034;5.342;2022-08-19T04:52:26;101192.00;;;22.80
19282;BMP180;9774;52.034;5.342;2022-08-19T04:54:54;101193.00;;;22.80
19282;BMP180;9774;52.034;5.342;2022-08-19T04:57:22;101195.00;;;22.80
19282;BMP180;9774;52.034;5.342;2022-08-19T04:59:53;101193.00;;;22.80
19282;BMP180;9774;52.034;5.342;2022-08-19T05:02:21;101201.00;;;22.80
19282;BMP180;9774;52.034;5.342;2022-08-19T05:04:57;101201.00;;;22.70
19282;BMP180;9774;52.034;5.342;2022-08-19T05:07:26;101213.00;;;22.80
19282;BMP180;9774;52.034;5.342;2022-08-19T05:09:54;101223.00;;;22.80
19282;BMP180;9774;52.034;5.342;2022-08-19T05:12:21;101225.00;;;22.80
19282;BMP180;9774;52.034;5.342;2022-08-19T05:14:48;101215.00;;;22.80
19282;BMP180;9774;52.034;5.342;2022-08-19T05:17:16;101219.00;;;22.80
19282;BMP180;9774;52.034;5.342;2022-08-19T05:19:43;101214.00;;;22.80
19282;BMP180;9774;52.034;5.342;2022-08-19T05:22:29;101219.00;;;22.80
19282;BMP180;9774;52.034;5.342;2022-08-19T05:25:03;101220.00;;;22.80
19282;BMP180;9774;52.034;5.342;2022-08-19T05:27:31;101224.00;;;22.90
19282;BMP180;9774;52.034;5.342;2022-08-19T05:29:59;101227.00;;;22.90
19282;BMP180;9774;52.034;5.342;2022-08-19T05:32:27;101228.00;;;22.90
19282;BMP180;9774;52.034;5.342;2022-08-19T05:34:55;101229.00;;;23.00
19282;BMP180;9774;52.034;5.342;2022-08-19T05:37:22;101233.00;;;23.00
19282;BMP180;9774;52.034;5.342;2022-08-19T05:39:54;101231.00;;;23.00
19282;BMP180;9774;52.034;5.342;2022-08-19T05:42:22;101237.00;;;23.00
19282;BMP180;9774;52.034;5.342;2022-08-19T05:44:50;101233.00;;;23.10
19282;BMP180;9774;52.034;5.342;2022-08-19T05:47:18;101232.00;;;23.10
19282;BMP180;9774;52.034;5.342;2022-08-19T05:49:46;101231.00;;;23.10
19282;BMP180;9774;52.034;5.342;2022-08-19T05:52:15;101233.00;;;23.10
19282;BMP180;9774;52.034;5.342;2022-08-19T05:54:43;101221.00;;;23.20
19282;BMP180;9774;52.034;5.342;2022-08-19T05:57:12;101227.00;;;23.20
19282;BMP180;9774;52.034;5.342;2022-08-19T05:59:40;101225.00;;;23.20
19282;BMP180;9774;52.034;5.342;2022-08-19T06:02:08;101222.00;;;23.30
19282;BMP180;9774;52.034;5.342;2022-08-19T06:04:36;101223.00;;;23.30
19282;BMP180;9774;52.034;5.342;2022-08-19T06:07:03;101223.00;;;23.30
19282;BMP180;9774;52.034;5.342;2022-08-19T06:09:31;101223.00;;;23.40
19282;BMP180;9774;52.034;5.342;2022-08-19T06:11:58;101219.00;;;23.40
19282;BMP180;9774;52.034;5.342;2022-08-19T06:14:30;101222.00;;;23.40
19282;BMP180;9774;52.034;5.342;2022-08-19T06:16:58;101229.00;;;23.50
19282;BMP180;9774;52.034;5.342;2022-08-19T06:19:28;101227.00;;;23.50
19282;BMP180;9774;52.034;5.342;2022-08-19T06:21:58;101229.00;;;23.60
19282;BMP180;9774;52.034;5.342;2022-08-19T06:24:28;101235.00;;;23.60
19282;BMP180;9774;52.034;5.342;2022-08-19T06:26:57;101231.00;;;23.70
19282;BMP180;9774;52.034;5.342;2022-08-19T06:29:26;101231.00;;;23.70
19282;BMP180;9774;52.034;5.342;2022-08-19T06:31:58;101225.00;;;23.70
19282;BMP180;9774;52.034;5.342;2022-08-19T06:34:26;101228.00;;;23.80
19282;BMP180;9774;52.034;5.342;2022-08-19T06:36:55;101238.00;;;23.80
19282;BMP180;9774;52.034;5.342;2022-08-19T06:39:26;101232.00;;;23.90
19282;BMP180;9774;52.034;5.342;2022-08-19T06:41:56;101233.00;;;23.90
19282;BMP180;9774;52.034;5.342;2022-08-19T06:44:26;101240.00;;;24.00
19282;BMP180;9774;52.034;5.342;2022-08-19T06:46:58;101241.00;;;24.00
19282;BMP180;9774;52.034;5.342;2022-08-19T06:49:25;101235.00;;;24.00
19282;BMP180;9774;52.034;5.342;2022-08-19T06:51:57;101236.00;;;24.10
19282;BMP180;9774;52.034;5.342;2022-08-19T06:54:25;101235.00;;;24.10
19282;BMP180;9774;52.034;5.342;2022-08-19T06:56:54;101237.00;;;24.20
19282;BMP180;9774;52.034;5.342;2022-08-19T06:59:24;101240.00;;;24.20
19282;BMP180;9774;52.034;5.342;2022-08-19T07:01:54;101249.00;;;24.30
19282;BMP180;9774;52.034;5.342;2022-08-19T07:04:26;101248.00;;;24.30
19282;BMP180;9774;52.034;5.342;2022-08-19T07:06:58;101240.00;;;24.30
19282;BMP180;9774;52.034;5.342;2022-08-19T07:09:26;101235.00;;;24.40
19282;BMP180;9774;52.034;5.342;2022-08-19T07:11:55;101249.00;;;24.50
19282;BMP180;9774;52.034;5.342;2022-08-19T07:14:25;101244.00;;;24.50
19282;BMP180;9774;52.034;5.342;2022-08-19T07:16:55;101254.00;;;24.50
19282;BMP180;9774;52.034;5.342;2022-08-19T07:19:25;101252.00;;;24.60
19282;BMP180;9774;52.034;5.342;2022-08-19T07:21:54;101257.00;;;24.60
19282;BMP180;9774;52.034;5.342;2022-08-19T07:24:23;101248.00;;;24.70
19282;BMP180;9774;52.034;5.342;2022-08-19T07:26:52;101246.00;;;24.70
19282;BMP180;9774;52.034;5.342;2022-08-19T07:29:21;101246.00;;;24.80
19282;BMP180;9774;52.034;5.342;2022-08-19T07:31:49;101248.00;;;24.80
19282;BMP180;9774;52.034;5.342;2022-08-19T07:34:17;101247.00;;;24.90
19282;BMP180;9774;52.034;5.342;2022-08-19T07:36:46;101252.00;;;24.90
19282;BMP180;9774;52.034;5.342;2022-08-19T07:39:17;101250.00;;;24.90
19282;BMP180;9774;52.034;5.342;2022-08-19T07:41:46;101253.00;;;25.00
19282;BMP180;9774;52.034;5.342;2022-08-19T07:44:14;101253.00;;;25.00
19282;BMP180;9774;52.034;5.342;2022-08-19T07:46:51;101260.00;;;25.00
19282;BMP180;9774;52.034;5.342;2022-08-19T07:49:19;101270.00;;;25.10
19282;BMP180;9774;52.034;5.342;2022-08-19T07:51:50;101264.00;;;25.10
19282;BMP180;9774;52.034;5.342;2022-08-19T07:54:20;101270.00;;;25.10
19282;BMP180;9774;52.034;5.342;2022-08-19T07:56:47;101265.00;;;25.20
19282;BMP180;9774;52.034;5.342;2022-08-19T07:59:23;101266.00;;;25.10
19282;BMP180;9774;52.034;5.342;2022-08-19T08:01:51;101269.00;;;25.30
19282;BMP180;9774;52.034;5.342;2022-08-19T08:04:19;101263.00;;;25.40
19282;BMP180;9774;52.034;5.342;2022-08-19T08:07:07;101269.00;;;25.50
19282;BMP180;9774;52.034;5.342;2022-08-19T08:09:53;101268.00;;;25.50
19282;BMP180;9774;52.034;5.342;2022-08-19T08:12:22;101278.00;;;25.60
19282;BMP180;9774;52.034;5.342;2022-08-19T08:14:54;101280.00;;;25.60
19282;BMP180;9774;52.034;5.342;2022-08-19T08:17:25;101280.00;;;25.70
19282;BMP180;9774;52.034;5.342;2022-08-19T08:19:53;101287.00;;;25.80
19282;BMP180;9774;52.034;5.342;2022-08-19T08:22:22;101285.00;;;25.90
19282;BMP180;9774;52.034;5.342;2022-08-19T08:25:11;101287.00;;;25.90
19282;BMP180;9774;52.034;5.342;2022-08-19T08:27:39;101292.00;;;26.00
19282;BMP180;9774;52.034;5.342;2022-08-19T08:30:08;101298.00;;;26.00
19282;BMP180;9774;52.034;5.342;2022-08-19T08:32:36;101303.00;;;26.10
19282;BMP180;9774;52.034;5.342;2022-08-19T08:35:05;101308.00;;;26.10
19282;BMP180;9774;52.034;5.342;2022-08-19T08:37:34;101307.00;;;26.20
19282;BMP180;9774;52.034;5.342;2022-08-19T08:40:04;101306.00;;;26.20
19282;BMP180;9774;52.034;5.342;2022-08-19T08:42:36;101305.00;;;26.20
19282;BMP180;9774;52.034;5.342;2022-08-19T08:45:12;101306.00;;;26.30
19282;BMP180;9774;52.034;5.342;2022-08-19T08:47:43;101315.00;;;26.40
19282;BMP180;9774;52.034;5.342;2022-08-19T08:50:18;101310.00;;;26.50
19282;BMP180;9774;52.034;5.342;2022-08-19T08:52:50;101306.00;;;26.60
19282;BMP180;9774;52.034;5.342;2022-08-19T08:55:23;101306.00;;;26.60
19282;BMP180;9774;52.034;5.342;2022-08-19T08:57:54;101291.00;;;26.80
19282;BMP180;9774;52.034;5.342;2022-08-19T09:00:25;101301.00;;;26.90
19282;BMP180;9774;52.034;5.342;2022-08-19T09:02:53;101298.00;;;27.10
19282;BMP180;9774;52.034;5.342;2022-08-19T09:05:21;101306.00;;;27.20
19282;BMP180;9774;52.034;5.342;2022-08-19T09:07:58;101315.00;;;27.30
19282;BMP180;9774;52.034;5.342;2022-08-19T09:10:32;101313.00;;;27.40
19282;BMP180;9774;52.034;5.342;2022-08-19T09:13:11;101313.00;;;27.40
19282;BMP180;9774;52.034;5.342;2022-08-19T09:15:42;101315.00;;;27.50
19282;BMP180;9774;52.034;5.342;2022-08-19T09:18:11;101315.00;;;27.60
19282;BMP180;9774;52.034;5.342;2022-08-19T09:20:38;101316.00;;;27.70
19282;BMP180;9774;52.034;5.342;2022-08-19T09:23:07;101311.00;;;27.70
19282;BMP180;9774;52.034;5.342;2022-08-19T09:25:35;101313.00;;;27.70
19282;BMP180;9774;52.034;5.342;2022-08-19T09:28:03;101315.00;;;27.80
19282;BMP180;9774;52.034;5.342;2022-08-19T09:30:34;101316.00;;;27.90
19282;BMP180;9774;52.034;5.342;2022-08-19T09:33:01;101319.00;;;28.00
19282;BMP180;9774;52.034;5.342;2022-08-19T09:35:30;101317.00;;;28.00
19282;BMP180;9774;52.034;5.342;2022-08-19T09:37:58;101322.00;;;28.10
19282;BMP180;9774;52.034;5.342;2022-08-19T09:40:28;101324.00;;;28.10
19282;BMP180;9774;52.034;5.342;2022-08-19T09:42:57;101328.00;;;28.10
19282;BMP180;9774;52.034;5.342;2022-08-19T09:45:28;101325.00;;;28.10
19282;BMP180;9774;52.034;5.342;2022-08-19T09:47:56;101324.00;;;28.10
19282;BMP180;9774;52.034;5.342;2022-08-19T09:50:24;101324.00;;;28.10
19282;BMP180;9774;52.034;5.342;2022-08-19T09:52:52;101327.00;;;28.10
19282;BMP180;9774;52.034;5.342;2022-08-19T09:55:24;101328.00;;;28.10
19282;BMP180;9774;52.034;5.342;2022-08-19T09:57:55;101328.00;;;28.00
19282;BMP180;9774;52.034;5.342;2022-08-19T10:00:23;101326.00;;;28.00
19282;BMP180;9774;52.034;5.342;2022-08-19T10:02:50;101321.00;;;28.00
19282;BMP180;9774;52.034;5.342;2022-08-19T10:05:17;101322.00;;;28.10
19282;BMP180;9774;52.034;5.342;2022-08-19T10:08:02;101320.00;;;28.10
19282;BMP180;9774;52.034;5.342;2022-08-19T10:10:30;101320.00;;;28.10
19282;BMP180;9774;52.034;5.342;2022-08-19T10:13:03;101324.00;;;28.20
19282;BMP180;9774;52.034;5.342;2022-08-19T10:15:30;101328.00;;;28.20
19282;BMP180;9774;52.034;5.342;2022-08-19T10:17:57;101326.00;;;28.30
19282;BMP180;9774;52.034;5.342;2022-08-19T10:20:25;101320.00;;;28.40
19282;BMP180;9774;52.034;5.342;2022-08-19T10:22:52;101326.00;;;28.50
19282;BMP180;9774;52.034;5.342;2022-08-19T10:25:20;101321.00;;;28.60
19282;BMP180;9774;52.034;5.342;2022-08-19T10:27:47;101322.00;;;28.60
19282;BMP180;9774;52.034;5.342;2022-08-19T10:30:16;101322.00;;;28.60
19282;BMP180;9774;52.034;5.342;2022-08-19T10:32:45;101321.00;;;28.70
19282;BMP180;9774;52.034;5.342;2022-08-19T10:35:13;101321.00;;;28.70
19282;BMP180;9774;52.034;5.342;2022-08-19T10:37:41;101321.00;;;28.70
19282;BMP180;9774;52.034;5.342;2022-08-19T10:40:09;101324.00;;;28.70
19282;BMP180;9774;52.034;5.342;2022-08-19T10:42:37;101317.00;;;28.80
19282;BMP180;9774;52.034;5.342;2022-08-19T10:45:06;101318.00;;;28.80
19282;BMP180;9774;52.034;5.342;2022-08-19T10:47:35;101318.00;;;28.90
19282;BMP180;9774;52.034;5.342;2022-08-19T10:50:03;101324.00;;;28.90
19282;BMP180;9774;52.034;5.342;2022-08-19T10:52:49;101324.00;;;28.90
19282;BMP180;9774;52.034;5.342;2022-08-19T10:55:19;101320.00;;;29.00
19282;BMP180;9774;52.034;5.342;2022-08-19T10:58:08;101314.00;;;29.00
19282;BMP180;9774;52.034;5.342;2022-08-19T11:00:36;101312.00;;;29.10
19282;BMP180;9774;52.034;5.342;2022-08-19T11:03:05;101312.00;;;29.10
19282;BMP180;9774;52.034;5.342;2022-08-19T11:05:32;101313.00;;;29.20
19282;BMP180;9774;52.034;5.342;2022-08-19T11:08:00;101317.00;;;29.30
19282;BMP180;9774;52.034;5.342;2022-08-19T11:10:27;101319.00;;;29.30
19282;BMP180;9774;52.034;5.342;2022-08-19T11:12:54;101307.00;;;29.40
19282;BMP180;9774;52.034;5.342;2022-08-19T11:15:22;101309.00;;;29.40
19282;BMP180;9774;52.034;5.342;2022-08-19T11:17:52;101307.00;;;29.50
19282;BMP180;9774;52.034;5.342;2022-08-19T11:20:23;101309.00;;;29.60
19282;BMP180;9774;52.034;5.342;2022-08-19T11:22:52;101302.00;;;29.70
19282;BMP180;9774;52.034;5.342;2022-08-19T11:25:20;101306.00;;;29.80
19282;BMP180;9774;52.034;5.342;2022-08-19T11:27:47;101296.00;;;29.90
19282;BMP180;9774;52.034;5.342;2022-08-19T11:30:17;101299.00;;;30.00
19282;BMP180;9774;52.034;5.342;2022-08-19T11:32:44;101298.00;;;30.10
19282;BMP180;9774;52.034;5.342;2022-08-19T11:35:12;101290.00;;;30.20
19282;BMP180;9774;52.034;5.342;2022-08-19T11:37:41;101293.00;;;30.20
19282;BMP180;9774;52.034;5.342;2022-08-19T11:40:09;101285.00;;;30.30
19282;BMP180;9774;52.034;5.342;2022-08-19T11:42:37;101290.00;;;30.40
19282;BMP180;9774;52.034;5.342;2022-08-19T11:45:28;101284.00;;;30.40
19282;BMP180;9774;52.034;5.342;2022-08-19T11:47:55;101288.00;;;30.40
19282;BMP180;9774;52.034;5.342;2022-08-19T11:50:23;101301.00;;;30.40
19282;BMP180;9774;52.034;5.342;2022-08-19T11:52:54;101293.00;;;30.40
19282;BMP180;9774;52.034;5.342;2022-08-19T11:55:22;101295.00;;;30.50
19282;BMP180;9774;52.034;5.342;2022-08-19T11:57:49;101291.00;;;30.50
19282;BMP180;9774;52.034;5.342;2022-08-19T12:00:17;101296.00;;;30.60
19282;BMP180;9774;52.034;5.342;2022-08-19T12:02:44;101288.00;;;30.60
19282;BMP180;9774;52.034;5.342;2022-08-19T12:05:11;101283.00;;;30.60
19282;BMP180;9774;52.034;5.342;2022-08-19T12:07:38;101287.00;;;30.60
19282;BMP180;9774;52.034;5.342;2022-08-19T12:10:11;101297.00;;;30.70
19282;BMP180;9774;52.034;5.342;2022-08-19T12:12:38;101295.00;;;30.70
19282;BMP180;9774;52.034;5.342;2022-08-19T12:15:09;101296.00;;;30.70
19282;BMP180;9774;52.034;5.342;2022-08-19T12:17:38;101299.00;;;30.80
19282;BMP180;9774;52.034;5.342;2022-08-19T12:20:07;101298.00;;;30.80
19282;BMP180;9774;52.034;5.342;2022-08-19T12:22:36;101291.00;;;30.70
19282;BMP180;9774;52.034;5.342;2022-08-19T12:25:05;101293.00;;;30.70
19282;BMP180;9774;52.034;5.342;2022-08-19T12:27:34;101295.00;;;30.70
19282;BMP180;9774;52.034;5.342;2022-08-19T12:30:02;101291.00;;;30.70
19282;BMP180;9774;52.034;5.342;2022-08-19T12:32:29;101295.00;;;30.70
19282;BMP180;9774;52.034;5.342;2022-08-19T12:34:57;101287.00;;;30.60
19282;BMP180;9774;52.034;5.342;2022-08-19T12:37:24;101289.00;;;30.60
19282;BMP180;9774;52.034;5.342;2022-08-19T12:39:51;101293.00;;;30.70
19282;BMP180;9774;52.034;5.342;2022-08-19T12:42:19;101289.00;;;30.70
19282;BMP180;9774;52.034;5.342;2022-08-19T12:44:49;101288.00;;;30.70
19282;BMP180;9774;52.034;5.342;2022-08-19T12:47:17;101288.00;;;30.80
19282;BMP180;9774;52.034;5.342;2022-08-19T12:49:45;101291.00;;;30.70
19282;BMP180;9774;52.034;5.342;2022-08-19T12:52:13;101275.00;;;30.70
19282;BMP180;9774;52.034;5.342;2022-08-19T12:54:42;101279.00;;;30.80
19282;BMP180;9774;52.034;5.342;2022-08-19T12:57:10;101280.00;;;30.80
19282;BMP180;9774;52.034;5.342;2022-08-19T12:59:39;101277.00;;;30.80
19282;BMP180;9774;52.034;5.342;2022-08-19T13:02:08;101279.00;;;30.80
19282;BMP180;9774;52.034;5.342;2022-08-19T13:04:36;101286.00;;;30.80
19282;BMP180;9774;52.034;5.342;2022-08-19T13:07:07;101278.00;;;30.80
19282;BMP180;9774;52.034;5.342;2022-08-19T13:09:34;101277.00;;;30.80
19282;BMP180;9774;52.034;5.342;2022-08-19T13:12:02;101275.00;;;30.80
19282;BMP180;9774;52.034;5.342;2022-08-19T13:14:33;101275.00;;;30.80
19282;BMP180;9774;52.034;5.342;2022-08-19T13:17:01;101273.00;;;30.80
19282;BMP180;9774;52.034;5.342;2022-08-19T13:19:30;101272.00;;;30.70
19282;BMP180;9774;52.034;5.342;2022-08-19T13:21:57;101275.00;;;30.70
19282;BMP180;9774;52.034;5.342;2022-08-19T13:24:25;101278.00;;;30.60
19282;BMP180;9774;52.034;5.342;2022-08-19T13:26:52;101276.00;;;30.60
19282;BMP180;9774;52.034;5.342;2022-08-19T13:29:19;101274.00;;;30.50
19282;BMP180;9774;52.034;5.342;2022-08-19T13:32:04;101276.00;;;30.50
19282;BMP180;9774;52.034;5.342;2022-08-19T13:35:06;101275.00;;;30.40
19282;BMP180;9774;52.034;5.342;2022-08-19T13:37:33;101276.00;;;30.30
19282;BMP180;9774;52.034;5.342;2022-08-19T13:40:13;101264.00;;;30.30
19282;BMP180;9774;52.034;5.342;2022-08-19T13:42:43;101283.00;;;30.20
19282;BMP180;9774;52.034;5.342;2022-08-19T13:45:14;101289.00;;;30.10
19282;BMP180;9774;52.034;5.342;2022-08-19T13:47:42;101288.00;;;30.10
19282;BMP180;9774;52.034;5.342;2022-08-19T13:50:15;101289.00;;;29.90
19282;BMP180;9774;52.034;5.342;2022-08-19T13:52:43;101294.00;;;29.80
19282;BMP180;9774;52.034;5.342;2022-08-19T13:55:11;101296.00;;;29.70
19282;BMP180;9774;52.034;5.342;2022-08-19T13:57:39;101306.00;;;29.60
19282;BMP180;9774;52.034;5.342;2022-08-19T14:00:08;101305.00;;;29.40
19282;BMP180;9774;52.034;5.342;2022-08-19T14:02:36;101308.00;;;29.30
19282;BMP180;9774;52.034;5.342;2022-08-19T14:05:08;101304.00;;;29.20
19282;BMP180;9774;52.034;5.342;2022-08-19T14:07:36;101290.00;;;29.10
19282;BMP180;9774;52.034;5.342;2022-08-19T14:10:05;101300.00;;;29.00
19282;BMP180;9774;52.034;5.342;2022-08-19T14:12:33;101294.00;;;28.90
19282;BMP180;9774;52.034;5.342;2022-08-19T14:15:01;101297.00;;;28.80
19282;BMP180;9774;52.034;5.342;2022-08-19T14:17:29;101296.00;;;28.80
19282;BMP180;9774;52.034;5.342;2022-08-19T14:19:57;101300.00;;;28.70
19282;BMP180;9774;52.034;5.342;2022-08-19T14:22:25;101299.00;;;28.60